sensor_id;sensor_type;location;lat;lon;timestamp;P1;durP1;ratioP1;P2;durP2;ratioP2
13108;SDS011;6620;53.734;11.510;2022-10-16T00:00:29;1.88;;;1.77;;
13108;SDS011;6620;53.734;11.510;2022-10-16T00:02:54;2.30;;;2.10;;
13108;SDS011;6620;53.734;11.510;2022-10-16T00:05:20;2.75;;;2.00;;
13108;SDS011;6620;53.734;11.510;2022-10-16T00:07:45;4.03;;;2.00;;
13108;SDS011;6620;53.734;11.510;2022-10-16T00:10:10;5.10;;;2.60;;
13108;SDS011;6620;53.734;11.510;2022-10-16T00:12:36;2.35;;;2.15;;
13108;SDS011;6620;53.734;11.510;2022-10-16T00:15:01;3.25;;;2.50;;
13108;SDS011;6620;53.734;11.510;2022-10-16T00:17:26;2.87;;;2.27;;
13108;SDS011;6620;53.734;11.510;2022-10-16T00:19:51;4.30;;;3.03;;
13108;SDS011;6620;53.734;11.510;2022-10-16T00:22:16;4.33;;;3.43;;
13108;SDS011;6620;53.734;11.510;2022-10-16T00:24:41;3.23;;;3.03;;
13108;SDS011;6620;53.734;11.510;2022-10-16T00:27:07;3.00;;;2.80;;
13108;SDS011;6620;53.734;11.510;2022-10-16T00:29:32;3.63;;;2.50;;
13108;SDS011;6620;53.734;11.510;2022-10-16T00:31:57;4.10;;;3.63;;
13108;SDS011;6620;53.734;11.510;2022-10-16T00:34:22;3.57;;;2.90;;
13108;SDS011;6620;53.734;11.510;2022-10-16T00:36:47;3.10;;;2.90;;
13108;SDS011;6620;53.734;11.510;2022-10-16T00:39:12;3.13;;;2.63;;
13108;SDS011;6620;53.734;11.510;2022-10-16T00:41:38;4.88;;;4.45;;
13108;SDS011;6620;53.734;11.510;2022-10-16T00:44:40;3.73;;;3.43;;
13108;SDS011;6620;53.734;11.510;2022-10-16T00:46:48;6.75;;;3.25;;
13108;SDS011;6620;53.734;11.510;2022-10-16T00:49:15;3.20;;;2.90;;
13108;SDS011;6620;53.734;11.510;2022-10-16T00:51:41;5.60;;;3.28;;
13108;SDS011;6620;53.734;11.510;2022-10-16T00:54:14;5.10;;;4.70;;
13108;SDS011;6620;53.734;11.510;2022-10-16T00:56:40;3.97;;;3.67;;
13108;SDS011;6620;53.734;11.510;2022-10-16T00:59:07;4.13;;;3.42;;
13108;SDS011;6620;53.734;11.510;2022-10-16T01:01:36;3.40;;;3.10;;
13108;SDS011;6620;53.734;11.510;2022-10-16T01:04:01;3.67;;;3.42;;
13108;SDS011;6620;53.734;11.510;2022-10-16T01:14:18;6.25;;;3.15;;
13108;SDS011;6620;53.734;11.510;2022-10-16T01:16:47;6.35;;;4.32;;
13108;SDS011;6620;53.734;11.510;2022-10-16T01:19:20;3.53;;;3.25;;
13108;SDS011;6620;53.734;11.510;2022-10-16T01:21:50;3.70;;;3.40;;
13108;SDS011;6620;53.734;11.510;2022-10-16T01:27:02;3.50;;;3.30;;
13108;SDS011;6620;53.734;11.510;2022-10-16T01:32:01;6.07;;;5.25;;
13108;SDS011;6620;53.734;11.510;2022-10-16T01:34:35;4.63;;;3.35;;
13108;SDS011;6620;53.734;11.510;2022-10-16T01:37:05;3.90;;;3.50;;
13108;SDS011;6620;53.734;11.510;2022-10-16T01:39:32;5.50;;;3.35;;
13108;SDS011;6620;53.734;11.510;2022-10-16T01:42:43;3.75;;;3.40;;
13108;SDS011;6620;53.734;11.510;2022-10-16T01:44:48;4.18;;;3.22;;
13108;SDS011;6620;53.734;11.510;2022-10-16T01:47:14;3.90;;;3.47;;
13108;SDS011;6620;53.734;11.510;2022-10-16T01:49:40;4.57;;;3.40;;
13108;SDS011;6620;53.734;11.510;2022-10-16T01:52:08;6.30;;;3.60;;
13108;SDS011;6620;53.734;11.510;2022-10-16T01:54:35;2.90;;;2.70;;
13108;SDS011;6620;53.734;11.510;2022-10-16T01:57:01;3.72;;;3.05;;
13108;SDS011;6620;53.734;11.510;2022-10-16T01:59:29;3.47;;;3.17;;
13108;SDS011;6620;53.734;11.510;2022-10-16T02:01:56;3.63;;;3.33;;
13108;SDS011;6620;53.734;11.510;2022-10-16T02:04:24;3.10;;;2.90;;
13108;SDS011;6620;53.734;11.510;2022-10-16T02:06:51;3.05;;;2.85;;
13108;SDS011;6620;53.734;11.510;2022-10-16T02:09:17;2.85;;;2.65;;
13108;SDS011;6620;53.734;11.510;2022-10-16T02:11:43;3.17;;;2.90;;
13108;SDS011;6620;53.734;11.510;2022-10-16T02:14:08;3.03;;;2.83;;
13108;SDS011;6620;53.734;11.510;2022-10-16T02:16:40;2.67;;;2.42;;
13108;SDS011;6620;53.734;11.510;2022-10-16T02:19:06;4.57;;;3.67;;
13108;SDS011;6620;53.734;11.510;2022-10-16T02:21:44;4.68;;;3.03;;
13108;SDS011;6620;53.734;11.510;2022-10-16T02:24:15;2.55;;;2.28;;
13108;SDS011;6620;53.734;11.510;2022-10-16T02:26:50;3.95;;;2.47;;
13108;SDS011;6620;53.734;11.510;2022-10-16T02:29:17;3.78;;;3.17;;
13108;SDS011;6620;53.734;11.510;2022-10-16T02:31:45;7.97;;;4.63;;
13108;SDS011;6620;53.734;11.510;2022-10-16T02:34:12;6.70;;;2.47;;
13108;SDS011;6620;53.734;11.510;2022-10-16T02:36:39;3.15;;;2.78;;
13108;SDS011;6620;53.734;11.510;2022-10-16T02:39:04;4.72;;;2.15;;
13108;SDS011;6620;53.734;11.510;2022-10-16T02:41:30;2.55;;;2.35;;
13108;SDS011;6620;53.734;11.510;2022-10-16T02:43:56;3.10;;;2.63;;
13108;SDS011;6620;53.734;11.510;2022-10-16T02:46:21;2.20;;;2.10;;
13108;SDS011;6620;53.734;11.510;2022-10-16T02:48:46;3.25;;;2.58;;
13108;SDS011;6620;53.734;11.510;2022-10-16T02:51:11;5.20;;;3.55;;
13108;SDS011;6620;53.734;11.510;2022-10-16T02:53:37;3.93;;;2.73;;
13108;SDS011;6620;53.734;11.510;2022-10-16T02:56:02;10.02;;;3.00;;
13108;SDS011;6620;53.734;11.510;2022-10-16T02:58:27;2.83;;;2.60;;
13108;SDS011;6620;53.734;11.510;2022-10-16T03:00:52;3.50;;;2.42;;
13108;SDS011;6620;53.734;11.510;2022-10-16T03:03:17;4.30;;;2.43;;
13108;SDS011;6620;53.734;11.510;2022-10-16T03:05:43;4.00;;;2.50;;
13108;SDS011;6620;53.734;11.510;2022-10-16T03:08:10;4.03;;;2.17;;
13108;SDS011;6620;53.734;11.510;2022-10-16T03:10:35;3.40;;;2.20;;
13108;SDS011;6620;53.734;11.510;2022-10-16T03:13:00;3.23;;;2.30;;
13108;SDS011;6620;53.734;11.510;2022-10-16T03:15:26;5.10;;;2.08;;
13108;SDS011;6620;53.734;11.510;2022-10-16T03:17:53;3.22;;;2.28;;
13108;SDS011;6620;53.734;11.510;2022-10-16T03:20:18;3.30;;;2.40;;
13108;SDS011;6620;53.734;11.510;2022-10-16T03:22:43;4.03;;;2.30;;
13108;SDS011;6620;53.734;11.510;2022-10-16T03:25:08;1.92;;;1.83;;
13108;SDS011;6620;53.734;11.510;2022-10-16T03:27:34;2.47;;;2.13;;
13108;SDS011;6620;53.734;11.510;2022-10-16T03:29:59;2.80;;;2.10;;
13108;SDS011;6620;53.734;11.510;2022-10-16T03:32:24;2.90;;;2.43;;
13108;SDS011;6620;53.734;11.510;2022-10-16T03:34:50;2.55;;;2.13;;
13108;SDS011;6620;53.734;11.510;2022-10-16T03:37:15;4.15;;;2.00;;
13108;SDS011;6620;53.734;11.510;2022-10-16T03:39:40;5.70;;;2.93;;
13108;SDS011;6620;53.734;11.510;2022-10-16T03:42:05;7.00;;;2.60;;
13108;SDS011;6620;53.734;11.510;2022-10-16T03:44:30;3.40;;;1.90;;
13108;SDS011;6620;53.734;11.510;2022-10-16T03:46:55;5.07;;;2.28;;
13108;SDS011;6620;53.734;11.510;2022-10-16T03:49:21;2.73;;;1.90;;
13108;SDS011;6620;53.734;11.510;2022-10-16T03:51:46;2.22;;;2.03;;
13108;SDS011;6620;53.734;11.510;2022-10-16T03:54:11;4.20;;;2.27;;
13108;SDS011;6620;53.734;11.510;2022-10-16T03:56:36;3.63;;;1.92;;
13108;SDS011;6620;53.734;11.510;2022-10-16T03:59:01;4.00;;;2.33;;
13108;SDS011;6620;53.734;11.510;2022-10-16T04:01:26;2.20;;;2.00;;
13108;SDS011;6620;53.734;11.510;2022-10-16T04:03:52;2.20;;;1.90;;
13108;SDS011;6620;53.734;11.510;2022-10-16T04:06:17;6.82;;;2.30;;
13108;SDS011;6620;53.734;11.510;2022-10-16T04:08:42;1.90;;;1.80;;
13108;SDS011;6620;53.734;11.510;2022-10-16T04:11:07;4.10;;;1.85;;
13108;SDS011;6620;53.734;11.510;2022-10-16T04:13:33;6.63;;;1.90;;
13108;SDS011;6620;53.734;11.510;2022-10-16T04:15:58;4.87;;;2.30;;
13108;SDS011;6620;53.734;11.510;2022-10-16T04:18:23;7.88;;;2.40;;
13108;SDS011;6620;53.734;11.510;2022-10-16T04:20:48;6.63;;;1.70;;
13108;SDS011;6620;53.734;11.510;2022-10-16T04:23:13;2.77;;;2.07;;
13108;SDS011;6620;53.734;11.510;2022-10-16T04:25:38;3.60;;;1.80;;
13108;SDS011;6620;53.734;11.510;2022-10-16T04:28:04;3.93;;;1.70;;
13108;SDS011;6620;53.734;11.510;2022-10-16T04:30:29;7.03;;;1.63;;
13108;SDS011;6620;53.734;11.510;2022-10-16T04:32:54;3.47;;;1.80;;
13108;SDS011;6620;53.734;11.510;2022-10-16T04:35:20;5.03;;;1.95;;
13108;SDS011;6620;53.734;11.510;2022-10-16T04:37:45;3.17;;;1.73;;
13108;SDS011;6620;53.734;11.510;2022-10-16T04:40:10;3.75;;;1.88;;
13108;SDS011;6620;53.734;11.510;2022-10-16T04:42:36;2.05;;;1.40;;
13108;SDS011;6620;53.734;11.510;2022-10-16T04:45:01;4.23;;;1.90;;
13108;SDS011;6620;53.734;11.510;2022-10-16T04:47:26;2.13;;;1.40;;
13108;SDS011;6620;53.734;11.510;2022-10-16T04:49:51;2.38;;;1.23;;
13108;SDS011;6620;53.734;11.510;2022-10-16T04:52:16;3.40;;;1.60;;
13108;SDS011;6620;53.734;11.510;2022-10-16T04:54:42;2.15;;;1.20;;
13108;SDS011;6620;53.734;11.510;2022-10-16T04:57:09;6.72;;;1.60;;
13108;SDS011;6620;53.734;11.510;2022-10-16T04:59:34;1.65;;;1.20;;
13108;SDS011;6620;53.734;11.510;2022-10-16T05:02:00;2.63;;;1.40;;
13108;SDS011;6620;53.734;11.510;2022-10-16T05:04:25;1.50;;;1.40;;
13108;SDS011;6620;53.734;11.510;2022-10-16T05:06:50;3.10;;;1.33;;
13108;SDS011;6620;53.734;11.510;2022-10-16T05:09:15;1.30;;;1.17;;
13108;SDS011;6620;53.734;11.510;2022-10-16T05:11:40;4.67;;;1.83;;
13108;SDS011;6620;53.734;11.510;2022-10-16T05:14:06;3.70;;;1.40;;
13108;SDS011;6620;53.734;11.510;2022-10-16T05:16:31;4.37;;;1.50;;
13108;SDS011;6620;53.734;11.510;2022-10-16T05:18:56;2.22;;;1.67;;
13108;SDS011;6620;53.734;11.510;2022-10-16T05:21:21;4.33;;;2.60;;
13108;SDS011;6620;53.734;11.510;2022-10-16T05:23:47;3.33;;;3.00;;
13108;SDS011;6620;53.734;11.510;2022-10-16T05:26:12;6.20;;;2.70;;
13108;SDS011;6620;53.734;11.510;2022-10-16T05:28:37;4.40;;;2.80;;
13108;SDS011;6620;53.734;11.510;2022-10-16T05:31:06;3.95;;;3.15;;
13108;SDS011;6620;53.734;11.510;2022-10-16T05:33:31;3.40;;;2.95;;
13108;SDS011;6620;53.734;11.510;2022-10-16T05:35:56;4.72;;;2.63;;
13108;SDS011;6620;53.734;11.510;2022-10-16T05:38:22;3.33;;;2.80;;
13108;SDS011;6620;53.734;11.510;2022-10-16T05:40:50;4.17;;;2.53;;
13108;SDS011;6620;53.734;11.510;2022-10-16T05:43:16;3.08;;;1.95;;
13108;SDS011;6620;53.734;11.510;2022-10-16T05:45:41;2.83;;;2.13;;
13108;SDS011;6620;53.734;11.510;2022-10-16T05:48:06;2.65;;;1.77;;
13108;SDS011;6620;53.734;11.510;2022-10-16T05:50:31;5.73;;;2.00;;
13108;SDS011;6620;53.734;11.510;2022-10-16T05:52:56;6.10;;;2.23;;
13108;SDS011;6620;53.734;11.510;2022-10-16T05:55:21;8.13;;;1.70;;
13108;SDS011;6620;53.734;11.510;2022-10-16T05:57:47;2.75;;;1.58;;
13108;SDS011;6620;53.734;11.510;2022-10-16T06:00:12;3.20;;;1.30;;
13108;SDS011;6620;53.734;11.510;2022-10-16T06:02:37;1.97;;;1.60;;
13108;SDS011;6620;53.734;11.510;2022-10-16T06:05:02;2.22;;;1.42;;
13108;SDS011;6620;53.734;11.510;2022-10-16T06:07:28;2.15;;;1.08;;
13108;SDS011;6620;53.734;11.510;2022-10-16T06:09:53;3.20;;;1.73;;
13108;SDS011;6620;53.734;11.510;2022-10-16T06:12:18;2.50;;;1.20;;
13108;SDS011;6620;53.734;11.510;2022-10-16T06:14:44;2.45;;;0.82;;
13108;SDS011;6620;53.734;11.510;2022-10-16T06:17:09;2.58;;;1.10;;
13108;SDS011;6620;53.734;11.510;2022-10-16T06:19:34;1.87;;;1.20;;
13108;SDS011;6620;53.734;11.510;2022-10-16T06:22:00;5.60;;;1.03;;
13108;SDS011;6620;53.734;11.510;2022-10-16T06:24:25;1.98;;;0.93;;
13108;SDS011;6620;53.734;11.510;2022-10-16T06:26:50;1.63;;;1.33;;
13108;SDS011;6620;53.734;11.510;2022-10-16T06:29:15;4.27;;;1.20;;
13108;SDS011;6620;53.734;11.510;2022-10-16T06:31:41;3.30;;;1.10;;
13108;SDS011;6620;53.734;11.510;2022-10-16T06:34:07;2.05;;;0.90;;
13108;SDS011;6620;53.734;11.510;2022-10-16T06:36:35;3.55;;;1.15;;
13108;SDS011;6620;53.734;11.510;2022-10-16T06:39:00;1.38;;;0.80;;
13108;SDS011;6620;53.734;11.510;2022-10-16T06:41:26;0.98;;;0.80;;
13108;SDS011;6620;53.734;11.510;2022-10-16T06:43:51;3.30;;;0.97;;
13108;SDS011;6620;53.734;11.510;2022-10-16T06:46:18;2.13;;;0.90;;
13108;SDS011;6620;53.734;11.510;2022-10-16T06:48:43;2.65;;;0.90;;
13108;SDS011;6620;53.734;11.510;2022-10-16T06:51:10;3.63;;;0.93;;
13108;SDS011;6620;53.734;11.510;2022-10-16T06:53:36;1.45;;;1.05;;
13108;SDS011;6620;53.734;11.510;2022-10-16T06:56:15;5.00;;;0.90;;
13108;SDS011;6620;53.734;11.510;2022-10-16T06:58:40;1.90;;;1.00;;
13108;SDS011;6620;53.734;11.510;2022-10-16T07:01:06;2.05;;;0.90;;
13108;SDS011;6620;53.734;11.510;2022-10-16T07:03:31;2.67;;;1.23;;
13108;SDS011;6620;53.734;11.510;2022-10-16T07:05:57;3.05;;;0.80;;
13108;SDS011;6620;53.734;11.510;2022-10-16T07:08:22;1.90;;;0.82;;
13108;SDS011;6620;53.734;11.510;2022-10-16T07:10:47;3.33;;;1.00;;
13108;SDS011;6620;53.734;11.510;2022-10-16T07:13:12;3.77;;;0.90;;
13108;SDS011;6620;53.734;11.510;2022-10-16T07:15:39;2.50;;;0.90;;
13108;SDS011;6620;53.734;11.510;2022-10-16T07:18:04;7.10;;;1.23;;
13108;SDS011;6620;53.734;11.510;2022-10-16T07:20:29;5.40;;;1.07;;
13108;SDS011;6620;53.734;11.510;2022-10-16T07:22:54;6.00;;;1.60;;
13108;SDS011;6620;53.734;11.510;2022-10-16T07:25:20;3.40;;;1.17;;
13108;SDS011;6620;53.734;11.510;2022-10-16T07:27:45;6.23;;;1.00;;
13108;SDS011;6620;53.734;11.510;2022-10-16T07:30:10;2.63;;;0.80;;
13108;SDS011;6620;53.734;11.510;2022-10-16T07:32:35;3.90;;;0.85;;
13108;SDS011;6620;53.734;11.510;2022-10-16T07:35:00;7.10;;;1.77;;
13108;SDS011;6620;53.734;11.510;2022-10-16T07:37:25;5.13;;;1.50;;
13108;SDS011;6620;53.734;11.510;2022-10-16T07:39:51;3.20;;;1.10;;
13108;SDS011;6620;53.734;11.510;2022-10-16T07:42:16;5.95;;;1.05;;
13108;SDS011;6620;53.734;11.510;2022-10-16T07:44:41;1.77;;;1.00;;
13108;SDS011;6620;53.734;11.510;2022-10-16T07:47:07;3.40;;;1.00;;
13108;SDS011;6620;53.734;11.510;2022-10-16T07:49:32;1.80;;;0.90;;
13108;SDS011;6620;53.734;11.510;2022-10-16T07:51:57;1.07;;;0.93;;
13108;SDS011;6620;53.734;11.510;2022-10-16T07:54:22;2.83;;;1.23;;
13108;SDS011;6620;53.734;11.510;2022-10-16T07:56:48;2.97;;;1.23;;
13108;SDS011;6620;53.734;11.510;2022-10-16T07:59:13;5.43;;;2.07;;
13108;SDS011;6620;53.734;11.510;2022-10-16T08:01:38;4.65;;;1.05;;
13108;SDS011;6620;53.734;11.510;2022-10-16T08:04:03;3.20;;;1.20;;
13108;SDS011;6620;53.734;11.510;2022-10-16T08:06:29;4.95;;;1.10;;
13108;SDS011;6620;53.734;11.510;2022-10-16T08:08:59;2.78;;;1.25;;
13108;SDS011;6620;53.734;11.510;2022-10-16T08:11:24;6.53;;;1.97;;
13108;SDS011;6620;53.734;11.510;2022-10-16T08:13:50;1.67;;;0.93;;
13108;SDS011;6620;53.734;11.510;2022-10-16T08:16:15;3.97;;;1.50;;
13108;SDS011;6620;53.734;11.510;2022-10-16T08:18:42;3.88;;;1.13;;
13108;SDS011;6620;53.734;11.510;2022-10-16T08:21:08;2.15;;;1.20;;
13108;SDS011;6620;53.734;11.510;2022-10-16T08:23:36;1.52;;;1.05;;
13108;SDS011;6620;53.734;11.510;2022-10-16T08:26:03;2.42;;;1.02;;
13108;SDS011;6620;53.734;11.510;2022-10-16T08:28:28;4.68;;;1.38;;
13108;SDS011;6620;53.734;11.510;2022-10-16T08:30:53;4.85;;;2.25;;
13108;SDS011;6620;53.734;11.510;2022-10-16T08:33:19;2.10;;;1.00;;
13108;SDS011;6620;53.734;11.510;2022-10-16T08:35:53;4.68;;;1.45;;
13108;SDS011;6620;53.734;11.510;2022-10-16T08:38:19;2.38;;;0.85;;
13108;SDS011;6620;53.734;11.510;2022-10-16T08:40:44;2.40;;;0.95;;
13108;SDS011;6620;53.734;11.510;2022-10-16T08:50:56;2.33;;;1.00;;
13108;SDS011;6620;53.734;11.510;2022-10-16T08:54:04;1.15;;;1.05;;
13108;SDS011;6620;53.734;11.510;2022-10-16T08:56:10;5.28;;;1.20;;
13108;SDS011;6620;53.734;11.510;2022-10-16T08:58:35;4.15;;;1.08;;
13108;SDS011;6620;53.734;11.510;2022-10-16T09:01:01;5.15;;;1.23;;
13108;SDS011;6620;53.734;11.510;2022-10-16T09:18:48;2.58;;;1.05;;
13108;SDS011;6620;53.734;11.510;2022-10-16T09:21:15;4.05;;;0.95;;
13108;SDS011;6620;53.734;11.510;2022-10-16T09:23:43;1.83;;;1.02;;
13108;SDS011;6620;53.734;11.510;2022-10-16T09:26:12;2.42;;;0.80;;
13108;SDS011;6620;53.734;11.510;2022-10-16T09:28:38;2.10;;;0.93;;
13108;SDS011;6620;53.734;11.510;2022-10-16T09:31:03;3.05;;;0.60;;
13108;SDS011;6620;53.734;11.510;2022-10-16T09:33:29;2.45;;;0.85;;
13108;SDS011;6620;53.734;11.510;2022-10-16T09:35:57;1.77;;;0.70;;
13108;SDS011;6620;53.734;11.510;2022-10-16T09:38:27;1.40;;;0.55;;
13108;SDS011;6620;53.734;11.510;2022-10-16T09:40:53;1.95;;;0.50;;
13108;SDS011;6620;53.734;11.510;2022-10-16T09:43:53;1.73;;;0.70;;
13108;SDS011;6620;53.734;11.510;2022-10-16T09:48:51;7.03;;;1.83;;
13108;SDS011;6620;53.734;11.510;2022-10-16T09:51:29;3.42;;;0.70;;
13108;SDS011;6620;53.734;11.510;2022-10-16T09:53:56;1.55;;;0.50;;
13108;SDS011;6620;53.734;11.510;2022-10-16T09:56:23;1.55;;;0.60;;
13108;SDS011;6620;53.734;11.510;2022-10-16T09:58:53;1.33;;;0.68;;
13108;SDS011;6620;53.734;11.510;2022-10-16T10:01:19;4.53;;;0.70;;
13108;SDS011;6620;53.734;11.510;2022-10-16T10:03:44;1.83;;;0.52;;
13108;SDS011;6620;53.734;11.510;2022-10-16T10:06:16;5.93;;;0.70;;
13108;SDS011;6620;53.734;11.510;2022-10-16T10:08:52;5.40;;;0.50;;
13108;SDS011;6620;53.734;11.510;2022-10-16T10:11:17;2.60;;;0.50;;
13108;SDS011;6620;53.734;11.510;2022-10-16T10:13:43;2.28;;;0.65;;
13108;SDS011;6620;53.734;11.510;2022-10-16T10:16:08;0.80;;;0.70;;
13108;SDS011;6620;53.734;11.510;2022-10-16T10:18:33;2.97;;;0.63;;
13108;SDS011;6620;53.734;11.510;2022-10-16T10:20:59;3.90;;;0.55;;
13108;SDS011;6620;53.734;11.510;2022-10-16T10:23:25;1.65;;;0.50;;
13108;SDS011;6620;53.734;11.510;2022-10-16T10:26:11;2.50;;;0.98;;
13108;SDS011;6620;53.734;11.510;2022-10-16T10:31:06;2.13;;;0.90;;
13108;SDS011;6620;53.734;11.510;2022-10-16T10:36:11;2.05;;;0.93;;
13108;SDS011;6620;53.734;11.510;2022-10-16T10:41:34;6.90;;;0.80;;
13108;SDS011;6620;53.734;11.510;2022-10-16T10:46:32;3.58;;;0.70;;
13108;SDS011;6620;53.734;11.510;2022-10-16T10:51:53;3.33;;;0.40;;
13108;SDS011;6620;53.734;11.510;2022-10-16T10:54:26;0.95;;;0.30;;
13108;SDS011;6620;53.734;11.510;2022-10-16T10:59:28;3.90;;;0.63;;
13108;SDS011;6620;53.734;11.510;2022-10-16T11:02:01;3.00;;;0.85;;
13108;SDS011;6620;53.734;11.510;2022-10-16T11:06:55;0.83;;;0.20;;
13108;SDS011;6620;53.734;11.510;2022-10-16T11:09:28;0.52;;;0.32;;
13108;SDS011;6620;53.734;11.510;2022-10-16T11:14:38;5.88;;;0.90;;
13108;SDS011;6620;53.734;11.510;2022-10-16T11:17:08;1.70;;;0.30;;
13108;SDS011;6620;53.734;11.510;2022-10-16T11:19:44;0.40;;;0.20;;
13108;SDS011;6620;53.734;11.510;2022-10-16T11:22:13;0.25;;;0.20;;
13108;SDS011;6620;53.734;11.510;2022-10-16T11:27:37;0.22;;;0.10;;
13108;SDS011;6620;53.734;11.510;2022-10-16T11:30:05;1.20;;;0.22;;
13108;SDS011;6620;53.734;11.510;2022-10-16T11:32:32;4.20;;;0.38;;
13108;SDS011;6620;53.734;11.510;2022-10-16T11:35:04;2.13;;;0.10;;
13108;SDS011;6620;53.734;11.510;2022-10-16T11:37:34;0.82;;;0.22;;
13108;SDS011;6620;53.734;11.510;2022-10-16T11:42:48;0.60;;;0.15;;
13108;SDS011;6620;53.734;11.510;2022-10-16T11:45:24;0.65;;;0.20;;
13108;SDS011;6620;53.734;11.510;2022-10-16T11:47:54;6.45;;;0.20;;
13108;SDS011;6620;53.734;11.510;2022-10-16T11:50:22;2.50;;;0.10;;
13108;SDS011;6620;53.734;11.510;2022-10-16T11:55:17;2.37;;;0.30;;
13108;SDS011;6620;53.734;11.510;2022-10-16T11:57:45;7.03;;;0.47;;
13108;SDS011;6620;53.734;11.510;2022-10-16T12:00:24;3.25;;;0.15;;
13108;SDS011;6620;53.734;11.510;2022-10-16T12:03:03;3.58;;;0.10;;
13108;SDS011;6620;53.734;11.510;2022-10-16T12:08:17;2.33;;;0.22;;
13108;SDS011;6620;53.734;11.510;2022-10-16T12:10:43;1.42;;;0.10;;
13108;SDS011;6620;53.734;11.510;2022-10-16T12:16:03;1.88;;;0.13;;
13108;SDS011;6620;53.734;11.510;2022-10-16T12:18:28;4.75;;;0.10;;
13108;SDS011;6620;53.734;11.510;2022-10-16T12:20:54;0.75;;;0.13;;
13108;SDS011;6620;53.734;11.510;2022-10-16T12:23:23;1.65;;;0.22;;
13108;SDS011;6620;53.734;11.510;2022-10-16T12:25:53;0.45;;;0.10;;
13108;SDS011;6620;53.734;11.510;2022-10-16T12:28:20;0.85;;;0.10;;
13108;SDS011;6620;53.734;11.510;2022-10-16T12:30:52;1.00;;;0.10;;
13108;SDS011;6620;53.734;11.510;2022-10-16T12:33:31;3.45;;;0.22;;
13108;SDS011;6620;53.734;11.510;2022-10-16T12:35:58;4.38;;;0.30;;
13108;SDS011;6620;53.734;11.510;2022-10-16T12:38:28;3.17;;;0.40;;
13108;SDS011;6620;53.734;11.510;2022-10-16T12:40:56;3.83;;;1.23;;
13108;SDS011;6620;53.734;11.510;2022-10-16T12:43:28;1.40;;;0.30;;
13108;SDS011;6620;53.734;11.510;2022-10-16T12:46:04;1.50;;;0.20;;
13108;SDS011;6620;53.734;11.510;2022-10-16T12:48:30;1.52;;;0.47;;
13108;SDS011;6620;53.734;11.510;2022-10-16T12:50:55;2.35;;;0.20;;
13108;SDS011;6620;53.734;11.510;2022-10-16T12:53:22;2.97;;;0.10;;
13108;SDS011;6620;53.734;11.510;2022-10-16T12:58:36;0.08;;;0.00;;
13108;SDS011;6620;53.734;11.510;2022-10-16T13:01:54;1.00;;;0.10;;
13108;SDS011;6620;53.734;11.510;2022-10-16T13:06:26;1.50;;;0.25;;
13108;SDS011;6620;53.734;11.510;2022-10-16T13:14:02;1.52;;;0.20;;
13108;SDS011;6620;53.734;11.510;2022-10-16T13:16:36;2.63;;;0.10;;
13108;SDS011;6620;53.734;11.510;2022-10-16T13:21:47;2.45;;;0.30;;
13108;SDS011;6620;53.734;11.510;2022-10-16T13:24:23;3.80;;;0.38;;
13108;SDS011;6620;53.734;11.510;2022-10-16T13:29:29;2.00;;;0.47;;
13108;SDS011;6620;53.734;11.510;2022-10-16T13:31:54;4.13;;;0.30;;
13108;SDS011;6620;53.734;11.510;2022-10-16T13:34:20;2.27;;;0.27;;
13108;SDS011;6620;53.734;11.510;2022-10-16T13:36:50;3.08;;;0.30;;
13108;SDS011;6620;53.734;11.510;2022-10-16T13:39:21;2.00;;;0.10;;
13108;SDS011;6620;53.734;11.510;2022-10-16T13:41:46;1.90;;;0.50;;
13108;SDS011;6620;53.734;11.510;2022-10-16T13:44:22;2.15;;;0.30;;
13108;SDS011;6620;53.734;11.510;2022-10-16T13:46:57;0.30;;;0.10;;
13108;SDS011;6620;53.734;11.510;2022-10-16T13:49:22;1.70;;;0.40;;
13108;SDS011;6620;53.734;11.510;2022-10-16T13:51:54;1.02;;;0.25;;
13108;SDS011;6620;53.734;11.510;2022-10-16T13:54:20;1.02;;;0.20;;
13108;SDS011;6620;53.734;11.510;2022-10-16T13:56:45;1.27;;;0.10;;
13108;SDS011;6620;53.734;11.510;2022-10-16T14:01:47;1.55;;;0.35;;
13108;SDS011;6620;53.734;11.510;2022-10-16T14:04:13;1.23;;;0.17;;
13108;SDS011;6620;53.734;11.510;2022-10-16T14:06:43;1.20;;;0.20;;
13108;SDS011;6620;53.734;11.510;2022-10-16T14:09:30;2.05;;;0.22;;
13108;SDS011;6620;53.734;11.510;2022-10-16T14:11:58;1.02;;;0.15;;
13108;SDS011;6620;53.734;11.510;2022-10-16T14:14:25;1.25;;;0.20;;
13108;SDS011;6620;53.734;11.510;2022-10-16T14:16:51;3.85;;;0.45;;
13108;SDS011;6620;53.734;11.510;2022-10-16T14:19:26;2.90;;;0.20;;
13108;SDS011;6620;53.734;11.510;2022-10-16T14:21:52;2.95;;;0.30;;
13108;SDS011;6620;53.734;11.510;2022-10-16T14:26:56;0.82;;;0.20;;
13108;SDS011;6620;53.734;11.510;2022-10-16T14:29:22;3.10;;;0.20;;
13108;SDS011;6620;53.734;11.510;2022-10-16T14:31:54;2.13;;;0.30;;
13108;SDS011;6620;53.734;11.510;2022-10-16T14:34:36;3.22;;;0.20;;
13108;SDS011;6620;53.734;11.510;2022-10-16T14:37:24;1.38;;;0.20;;
13108;SDS011;6620;53.734;11.510;2022-10-16T14:39:51;0.38;;;0.10;;
13108;SDS011;6620;53.734;11.510;2022-10-16T14:42:16;1.83;;;0.57;;
13108;SDS011;6620;53.734;11.510;2022-10-16T14:44:43;2.17;;;0.47;;
13108;SDS011;6620;53.734;11.510;2022-10-16T14:47:09;3.22;;;0.40;;
13108;SDS011;6620;53.734;11.510;2022-10-16T14:49:37;1.25;;;0.30;;
13108;SDS011;6620;53.734;11.510;2022-10-16T14:52:05;3.25;;;0.75;;
13108;SDS011;6620;53.734;11.510;2022-10-16T14:54:33;3.03;;;0.35;;
13108;SDS011;6620;53.734;11.510;2022-10-16T14:56:58;0.60;;;0.53;;
13108;SDS011;6620;53.734;11.510;2022-10-16T14:59:25;2.20;;;0.20;;
13108;SDS011;6620;53.734;11.510;2022-10-16T15:01:52;3.30;;;0.20;;
13108;SDS011;6620;53.734;11.510;2022-10-16T15:04:17;3.92;;;0.30;;
13108;SDS011;6620;53.734;11.510;2022-10-16T15:06:43;1.08;;;0.15;;
13108;SDS011;6620;53.734;11.510;2022-10-16T15:09:08;3.38;;;0.25;;
13108;SDS011;6620;53.734;11.510;2022-10-16T15:11:34;2.08;;;0.25;;
13108;SDS011;6620;53.734;11.510;2022-10-16T15:13:59;1.10;;;0.20;;
13108;SDS011;6620;53.734;11.510;2022-10-16T15:16:25;1.45;;;0.20;;
13108;SDS011;6620;53.734;11.510;2022-10-16T15:18:50;5.10;;;0.85;;
13108;SDS011;6620;53.734;11.510;2022-10-16T15:21:29;2.17;;;0.30;;
13108;SDS011;6620;53.734;11.510;2022-10-16T15:23:54;4.05;;;0.75;;
13108;SDS011;6620;53.734;11.510;2022-10-16T15:26:21;4.63;;;0.28;;
13108;SDS011;6620;53.734;11.510;2022-10-16T15:28:46;2.15;;;0.43;;
13108;SDS011;6620;53.734;11.510;2022-10-16T15:31:11;2.30;;;0.30;;
13108;SDS011;6620;53.734;11.510;2022-10-16T15:33:37;3.83;;;0.38;;
13108;SDS011;6620;53.734;11.510;2022-10-16T15:36:02;2.13;;;0.30;;
13108;SDS011;6620;53.734;11.510;2022-10-16T15:38:28;4.22;;;0.30;;
13108;SDS011;6620;53.734;11.510;2022-10-16T15:40:53;3.47;;;0.43;;
13108;SDS011;6620;53.734;11.510;2022-10-16T15:43:18;1.20;;;0.20;;
13108;SDS011;6620;53.734;11.510;2022-10-16T15:45:44;2.33;;;0.23;;
13108;SDS011;6620;53.734;11.510;2022-10-16T15:48:12;1.48;;;0.30;;
13108;SDS011;6620;53.734;11.510;2022-10-16T15:50:38;8.73;;;0.68;;
13108;SDS011;6620;53.734;11.510;2022-10-16T15:53:03;1.02;;;0.30;;
13108;SDS011;6620;53.734;11.510;2022-10-16T15:55:29;2.80;;;0.93;;
13108;SDS011;6620;53.734;11.510;2022-10-16T15:57:54;3.15;;;0.30;;
13108;SDS011;6620;53.734;11.510;2022-10-16T16:00:20;2.77;;;0.23;;
13108;SDS011;6620;53.734;11.510;2022-10-16T16:02:53;3.72;;;0.43;;
13108;SDS011;6620;53.734;11.510;2022-10-16T16:05:18;3.10;;;0.30;;
13108;SDS011;6620;53.734;11.510;2022-10-16T16:07:44;2.35;;;0.40;;
13108;SDS011;6620;53.734;11.510;2022-10-16T16:10:09;5.23;;;0.40;;
13108;SDS011;6620;53.734;11.510;2022-10-16T16:12:35;2.85;;;0.40;;
13108;SDS011;6620;53.734;11.510;2022-10-16T16:15:00;4.57;;;0.63;;
13108;SDS011;6620;53.734;11.510;2022-10-16T16:17:25;0.73;;;0.25;;
13108;SDS011;6620;53.734;11.510;2022-10-16T16:19:51;2.67;;;0.38;;
13108;SDS011;6620;53.734;11.510;2022-10-16T16:22:16;1.70;;;1.05;;